Mount Airy, NC

11:35 AM EST on January 18, 2017 (GMT -0500)
Mount Airy-Surry County

Weather History for KMWK - October, 2011

Change the Weather History Date:

Saturday, October 15, 2011

  Actual Average (KINT) Record (KINT)
Temperature  
Mean Temperature 56 °F -  
Max Temperature 69 °F 68 °F 88 °F (1989)
Min Temperature 44 °F 48 °F 27 °F (1988)
Degree Days  
Heating Degree Days 8    
Growing Degree Days 6 (Base 50)    
Moisture  
Dew Point 36 °F    
Average Humidity 53    
Maximum Humidity 87    
Minimum Humidity 18    
Precipitation  
Precipitation 0.00 in - - ()
Sea Level Pressure  
Sea Level Pressure 29.91 in    
Wind  
Wind Speed 3 mph (West)    
Max Wind Speed 15 mph    
Max Gust Speed 20 mph    
Visibility 10 miles    
Events      
Averages and records for this station are not official NWS values.
T = Trace of Precipitation, MM = Missing Value Source: NWS Daily Summary

Daily Weather History Graph

Daily Weather History Graph

Search for Another Location

Airport or City:

Trip Planner

Search our weather history database for the weather conditions in past years. The results will help you decide how hot, cold, wet, or windy it might be!

Date:

Astronomy

Oct. 15, 2011 Rise Set
Actual Time 7:29 AM EDT 6:46 PM EDT
Civil Twilight 7:03 AM EDT 7:12 PM EDT
Nautical Twilight 6:33 AM EDT 7:42 PM EDT
Astronomical Twilight 6:03 AM EDT 8:11 PM EDT
Moon 8:48 PM EDT (10/15) 10:45 AM EDT (10/15)
Length of Visible Light 12h 09m
Length of Day
11h 17m
Waning Gibbous, 89% of the Moon is Illuminated
Oct 15
Waning Gibbous
Oct 19
Last Quarter
Oct 26
New
Nov 2
First Quarter
Nov 10
Full

Hourly Weather History & Observations

Time (EDT) Temp. Dew Point Humidity Pressure Visibility Wind Dir Wind Speed Gust Speed Precip Events Conditions
12:15 AM 55.4 °F 39.2 °F 54% 29.85 in 10.0 mi West 3.5 mph - N/A   Clear
12:35 AM 55.4 °F 37.4 °F 51% 29.85 in 10.0 mi WSW 3.5 mph - N/A   Clear
12:55 AM 55.4 °F 37.4 °F 51% 29.85 in 10.0 mi West 3.5 mph - N/A   Clear
1:15 AM 55.4 °F 35.6 °F 47% 29.85 in 10.0 mi Calm Calm - N/A   Clear
1:35 AM 55.4 °F 35.6 °F 47% 29.86 in 10.0 mi Calm Calm - N/A   Clear
1:55 AM 51.8 °F 42.8 °F 71% 29.86 in 10.0 mi Calm Calm - N/A   Clear
2:15 AM 50.0 °F 42.8 °F 76% 29.86 in 10.0 mi Calm Calm - N/A   Clear
2:35 AM 50.0 °F 41.0 °F 71% 29.87 in 10.0 mi Calm Calm - N/A   Clear
2:55 AM 50.0 °F 42.8 °F 76% 29.86 in 10.0 mi Calm Calm - N/A   Clear
3:15 AM 50.0 °F 42.8 °F 76% 29.86 in 10.0 mi Calm Calm - N/A   Scattered Clouds
3:35 AM 50.0 °F 41.0 °F 71% 29.86 in 10.0 mi Calm Calm - N/A   Scattered Clouds
3:55 AM 46.4 °F 41.0 °F 81% 29.87 in 10.0 mi Calm Calm - N/A   Clear
4:15 AM 46.4 °F 41.0 °F 81% 29.87 in 10.0 mi Calm Calm - N/A   Clear
4:35 AM 48.2 °F 41.0 °F 76% 29.87 in 10.0 mi North 3.5 mph - N/A   Clear
4:55 AM 46.4 °F 41.0 °F 81% 29.88 in 10.0 mi Calm Calm - N/A   Clear
5:15 AM 46.4 °F 41.0 °F 81% 29.88 in 10.0 mi Calm Calm - N/A   Clear
5:35 AM 46.4 °F 41.0 °F 81% 29.89 in 10.0 mi Calm Calm - N/A   Clear
5:55 AM 44.6 °F 41.0 °F 87% 29.90 in 10.0 mi Calm Calm - N/A   Clear
6:15 AM 44.6 °F 41.0 °F 87% 29.91 in 10.0 mi Calm Calm - N/A   Clear
6:35 AM 44.6 °F 41.0 °F 87% 29.90 in 10.0 mi Calm Calm - N/A   Clear
6:55 AM 44.6 °F 41.0 °F 87% 29.91 in 10.0 mi Calm Calm - N/A   Clear
7:15 AM 44.6 °F 41.0 °F 87% 29.92 in 10.0 mi Calm Calm - N/A   Clear
7:35 AM 44.6 °F 41.0 °F 87% 29.92 in 10.0 mi Calm Calm - N/A   Clear
7:55 AM 44.6 °F 41.0 °F 87% 29.93 in 10.0 mi Calm Calm - N/A   Scattered Clouds
8:15 AM 46.4 °F 42.8 °F 87% 29.94 in 10.0 mi Calm Calm - N/A   Clear
8:35 AM 50.0 °F 42.8 °F 76% 29.94 in 10.0 mi Calm Calm - N/A   Clear
9:15 AM 55.4 °F 41.0 °F 58% 29.95 in 10.0 mi West 4.6 mph - N/A   Clear
9:35 AM 57.2 °F 41.0 °F 55% 29.96 in 10.0 mi WSW 5.8 mph - N/A   Clear
9:55 AM 59.0 °F 42.8 °F 55% 29.97 in 10.0 mi WSW 4.6 mph - N/A   Clear
10:15 AM 60.8 °F 39.2 °F 45% 29.97 in 10.0 mi West 8.1 mph - N/A   Clear
10:35 AM 60.8 °F 35.6 °F 39% 29.97 in 10.0 mi West 9.2 mph 19.6 mph N/A   Clear
10:55 AM 60.8 °F 35.6 °F 39% 29.97 in 10.0 mi WSW 8.1 mph 17.3 mph N/A   Clear
11:15 AM 62.6 °F 35.6 °F 37% 29.97 in 10.0 mi West 5.8 mph 17.3 mph N/A   Clear
11:35 AM 62.6 °F 35.6 °F 37% 29.96 in 10.0 mi West 6.9 mph - N/A   Clear
11:55 AM 64.4 °F 35.6 °F 34% 29.97 in 10.0 mi WSW 8.1 mph - N/A   Clear
12:15 PM 64.4 °F 32.0 °F 30% 29.96 in 10.0 mi WSW 8.1 mph - N/A   Clear
12:35 PM 66.2 °F 32.0 °F 28% 29.96 in 10.0 mi WSW 6.9 mph - N/A   Clear
12:55 PM 68.0 °F 30.2 °F 24% 29.95 in 10.0 mi West 8.1 mph 17.3 mph N/A   Clear
1:15 PM 68.0 °F 30.2 °F 24% 29.95 in 10.0 mi West 6.9 mph 18.4 mph N/A   Clear
1:35 PM 69.8 °F 28.4 °F 21% 29.94 in 10.0 mi West 8.1 mph 17.3 mph N/A   Clear
1:55 PM 69.8 °F 26.6 °F 20% 29.93 in 10.0 mi West 6.9 mph 17.3 mph N/A   Clear
2:15 PM 69.8 °F 26.6 °F 20% 29.92 in 10.0 mi West 11.5 mph 18.4 mph N/A   Clear
2:35 PM 69.8 °F 24.8 °F 18% 29.92 in 10.0 mi West 15.0 mph 19.6 mph N/A   Clear
2:55 PM 69.8 °F 26.6 °F 20% 29.91 in 10.0 mi West 9.2 mph - N/A   Clear
3:15 PM 69.8 °F 26.6 °F 20% 29.91 in 10.0 mi West 9.2 mph 16.1 mph N/A   Clear
3:35 PM 69.8 °F 26.6 °F 20% 29.91 in 10.0 mi West 5.8 mph - N/A   Clear
3:55 PM 69.8 °F 26.6 °F 20% 29.91 in 10.0 mi West 11.5 mph 17.3 mph N/A   Clear
4:15 PM 69.8 °F 24.8 °F 18% 29.92 in 10.0 mi West 8.1 mph - N/A   Clear
4:35 PM 69.8 °F 24.8 °F 18% 29.92 in 10.0 mi West 9.2 mph 16.1 mph N/A   Clear
4:55 PM 69.8 °F 24.8 °F 18% 29.92 in 10.0 mi West 10.4 mph 16.1 mph N/A   Clear
5:15 PM 69.8 °F 26.6 °F 20% 29.93 in 10.0 mi West 5.8 mph - N/A   Clear
5:35 PM 68.0 °F 26.6 °F 21% 29.93 in 10.0 mi West 8.1 mph 16.1 mph N/A   Clear
5:55 PM 68.0 °F 26.6 °F 21% 29.94 in 10.0 mi West 8.1 mph - N/A   Clear
6:15 PM 64.4 °F 28.4 °F 26% 29.94 in 10.0 mi West 6.9 mph - N/A   Clear
6:55 PM 62.6 °F 32.0 °F 32% 29.96 in 10.0 mi Calm Calm - N/A   Clear
7:15 PM 60.8 °F 32.0 °F 34% 29.97 in 10.0 mi Calm Calm - N/A   Clear
7:35 PM 59.0 °F 32.0 °F 36% 29.98 in 10.0 mi Calm Calm - N/A   Clear
8:15 PM 60.8 °F 32.0 °F 34% 30.00 in 10.0 mi West 4.6 mph - N/A   Clear
8:35 PM 59.0 °F 32.0 °F 36% 30.00 in 10.0 mi Calm Calm - N/A   Clear
8:55 PM 59.0 °F 32.0 °F 36% 30.01 in 10.0 mi Calm Calm - N/A   Clear
9:15 PM 55.4 °F 33.8 °F 44% 30.01 in 10.0 mi Calm Calm - N/A   Clear
9:35 PM 53.6 °F 37.4 °F 54% 30.02 in 10.0 mi Calm Calm - N/A   Clear
9:55 PM 51.8 °F 39.2 °F 62% 30.02 in 10.0 mi Calm Calm - N/A   Clear
10:15 PM 51.8 °F 37.4 °F 58% 30.03 in 10.0 mi Calm Calm - N/A   Clear
10:55 PM 50.0 °F 41.0 °F 71% 30.04 in 10.0 mi Calm Calm - N/A   Clear
11:15 PM 48.2 °F 41.0 °F 76% 30.05 in 10.0 mi Calm Calm - N/A   Clear
11:35 PM 46.4 °F 41.0 °F 81% 30.05 in 10.0 mi Calm Calm - N/A   Clear